createdAt,value
2023-05-11T08:34:30.942Z,19.74
2023-05-11T08:37:02.181Z,19.71
2023-05-11T08:39:45.977Z,19.73
2023-05-11T08:42:16.559Z,19.77
2023-05-11T08:44:46.056Z,19.88
2023-05-11T08:49:50.288Z,20.33
2023-05-11T08:52:19.653Z,20.59
2023-05-11T08:54:49.087Z,20.92
2023-05-11T08:57:18.434Z,21.11
2023-05-11T08:59:48.106Z,21.31
2023-05-11T09:02:18.932Z,21.56
2023-05-11T09:04:50.932Z,21.86
2023-05-11T09:07:20.394Z,21.93
2023-05-11T09:09:49.896Z,21.84
2023-05-11T09:12:19.234Z,21.73
2023-05-11T09:14:48.726Z,21.57
2023-05-11T09:17:18.193Z,21.61
2023-05-11T09:20:05.413Z,21.70
2023-05-11T09:22:36.671Z,21.82
2023-05-11T09:25:06.297Z,21.92
2023-05-11T09:27:35.891Z,22.16
2023-05-11T09:30:22.261Z,22.28
2023-05-11T09:32:55.522Z,22.41
2023-05-11T09:35:28.872Z,22.29
2023-05-11T09:38:02.517Z,22.05
2023-05-11T09:40:33.915Z,21.72
2023-05-11T09:43:04.196Z,21.51
2023-05-11T09:45:42.966Z,21.54
2023-05-11T09:48:16.735Z,21.42
2023-05-11T09:50:48.673Z,21.46
2023-05-11T09:53:18.092Z,21.59
2023-05-11T09:55:51.438Z,21.54
2023-05-11T09:58:20.802Z,21.56
2023-05-11T10:00:53.881Z,21.42
2023-05-11T10:03:25.816Z,21.33
2023-05-11T10:06:04.477Z,21.27
2023-05-11T10:08:34.639Z,21.36
2023-05-11T10:11:04.048Z,21.41
2023-05-11T10:13:33.603Z,21.47
2023-05-11T10:16:03.647Z,21.38
2023-05-11T10:18:33.788Z,21.38
2023-05-11T10:21:05.717Z,21.34
2023-05-11T10:23:36.460Z,21.31
2023-05-11T10:26:05.910Z,21.13
2023-05-11T10:28:35.231Z,20.87
2023-05-11T10:31:04.563Z,20.75
2023-05-11T10:33:34.375Z,20.72
2023-05-11T10:36:06.793Z,20.70
2023-05-11T10:38:36.298Z,20.82
2023-05-11T10:41:15.162Z,20.91
2023-05-11T10:43:49.279Z,20.85
2023-05-11T10:46:22.909Z,20.88
2023-05-11T10:48:55.883Z,21.02
2023-05-11T10:51:40.734Z,21.03
2023-05-11T10:54:13.293Z,20.98
2023-05-11T10:56:50.093Z,21.05
2023-05-11T10:59:23.379Z,20.96
2023-05-11T11:01:54.902Z,20.99
2023-05-11T11:04:24.327Z,20.99
2023-05-11T11:13:06.481Z,21.34
2023-05-11T11:15:50.888Z,21.42
2023-05-11T11:18:25.983Z,21.37
2023-05-11T11:20:55.797Z,21.37
2023-05-11T11:23:40.206Z,21.36
2023-05-11T11:26:10.166Z,21.43
2023-05-11T11:28:54.577Z,21.53
2023-05-11T11:31:27.671Z,21.64
2023-05-11T11:34:01.268Z,21.72
2023-05-11T11:36:58.703Z,21.65
2023-05-11T11:39:28.223Z,21.58
2023-05-11T11:42:02.790Z,21.61
2023-05-11T11:44:32.334Z,21.62
2023-05-11T11:47:16.626Z,21.55
2023-05-11T11:49:49.284Z,21.42
2023-05-11T11:52:35.087Z,21.33
2023-05-11T11:55:05.826Z,21.44
2023-05-11T11:57:46.818Z,21.51
2023-05-11T12:00:17.160Z,21.49
2023-05-11T12:02:47.179Z,21.36
2023-05-11T12:05:22.993Z,21.33
2023-05-11T12:07:53.344Z,21.37
2023-05-11T12:10:23.137Z,21.34
2023-05-11T12:12:55.148Z,21.42
2023-05-11T12:15:27.422Z,21.46
2023-05-11T12:17:56.864Z,21.49
2023-05-11T12:20:28.825Z,21.45
2023-05-11T12:22:58.130Z,21.44
2023-05-11T12:25:27.494Z,21.74
2023-05-11T12:27:58.580Z,21.91
2023-05-11T12:30:28.447Z,21.97
2023-05-11T12:32:58.104Z,22.01
2023-05-11T12:35:30.413Z,22.08
2023-05-11T12:38:00.079Z,22.18
2023-05-11T12:40:29.574Z,22.31
2023-05-11T12:42:59.181Z,22.25
2023-05-11T12:45:29.422Z,22.19
2023-05-11T12:47:59.268Z,22.12
2023-05-11T12:50:31.304Z,22.12
2023-05-11T12:53:14.565Z,22.13
2023-05-11T12:55:44.153Z,22.21
2023-05-11T12:58:14.290Z,22.08
2023-05-11T13:00:54.435Z,21.99
2023-05-11T13:03:24.239Z,22.09
2023-05-11T13:05:56.184Z,22.15
2023-05-11T13:08:25.602Z,22.17
2023-05-11T13:10:54.913Z,22.07
2023-05-11T13:13:30.307Z,21.84
2023-05-11T13:15:59.942Z,21.35
2023-05-11T13:18:29.341Z,21.02
2023-05-11T13:21:11.265Z,20.33
2023-05-11T13:23:40.667Z,19.64
2023-05-11T13:26:10.085Z,19.21
2023-05-11T13:28:39.403Z,18.82
2023-05-11T13:31:08.914Z,18.43
2023-05-11T13:33:38.517Z,18.23
2023-05-11T13:36:08.152Z,18.21
2023-05-11T13:38:40.135Z,17.92
2023-05-11T13:41:10.130Z,17.96
2023-05-11T13:43:39.648Z,17.99
2023-05-11T13:46:09.483Z,17.75
2023-05-11T13:48:38.782Z,17.71
2023-05-11T13:51:08.233Z,17.82
2023-05-11T13:53:40.148Z,18.20
2023-05-11T13:56:09.483Z,18.60
2023-05-11T13:58:39.363Z,18.70
2023-05-11T14:01:09.185Z,18.79
2023-05-11T14:03:38.660Z,18.56
2023-05-11T14:06:08.469Z,18.38
2023-05-11T14:08:40.362Z,18.39
2023-05-11T14:11:09.653Z,18.60
2023-05-11T14:13:38.941Z,18.63
2023-05-11T14:16:10.203Z,18.40
2023-05-11T14:18:39.692Z,18.30
2023-05-11T14:21:09.100Z,18.38
2023-05-11T14:23:47.322Z,18.52
2023-05-11T14:26:23.204Z,18.60
2023-05-11T14:28:52.748Z,18.50
2023-05-11T14:31:22.656Z,18.40
2023-05-11T14:33:51.995Z,18.63
2023-05-11T14:36:21.540Z,18.75
2023-05-11T14:38:53.469Z,18.44
2023-05-11T14:41:23.352Z,18.30
2023-05-11T14:43:52.676Z,18.23
2023-05-11T14:46:22.744Z,18.12
2023-05-11T14:48:53.213Z,18.24
2023-05-11T14:51:22.522Z,18.24
2023-05-11T14:53:54.520Z,18.08
2023-05-11T14:56:23.895Z,17.99
2023-05-11T14:58:53.778Z,17.82
2023-05-11T15:01:23.137Z,17.87
2023-05-11T15:03:52.513Z,17.89
2023-05-11T15:06:23.769Z,17.95
2023-05-11T15:08:55.659Z,18.07
2023-05-11T15:11:25.367Z,18.00
2023-05-11T15:13:54.942Z,17.92
2023-05-11T15:16:24.315Z,17.89
2023-05-11T15:18:53.716Z,17.64
2023-05-11T15:21:23.061Z,17.73
2023-05-11T15:23:55.048Z,17.75
2023-05-11T15:26:24.408Z,17.79
2023-05-11T15:28:53.709Z,17.65
2023-05-11T15:31:23.523Z,17.38
2023-05-11T15:33:52.884Z,17.23
2023-05-11T15:36:22.349Z,17.17
2023-05-11T15:38:51.628Z,16.74
2023-05-11T15:41:24.317Z,16.50
2023-05-11T15:43:53.893Z,16.51
2023-05-11T15:46:23.592Z,16.47
2023-05-11T15:48:52.925Z,16.65
2023-05-11T15:51:22.282Z,16.66
2023-05-11T15:53:51.570Z,16.80
2023-05-11T15:56:23.511Z,16.92
2023-05-11T15:58:52.825Z,16.93
2023-05-11T16:01:22.326Z,17.11
2023-05-11T16:03:51.807Z,17.27
2023-05-11T16:06:21.511Z,17.26
2023-05-11T16:08:50.815Z,16.95
2023-05-11T16:11:20.126Z,17.05
2023-05-11T16:13:52.019Z,16.86
2023-05-11T16:16:21.392Z,16.94
2023-05-11T16:18:50.797Z,17.06
2023-05-11T16:21:20.157Z,17.18
2023-05-11T16:23:49.666Z,17.21
2023-05-11T16:26:19.002Z,17.37
2023-05-11T16:28:48.342Z,17.40
2023-05-11T16:31:20.357Z,16.77
2023-05-11T16:33:49.748Z,16.48
2023-05-11T16:36:19.068Z,16.21
2023-05-11T16:38:48.417Z,15.92
2023-05-11T16:41:17.712Z,15.66
2023-05-11T16:43:47.817Z,15.63
2023-05-11T16:46:17.106Z,15.55
2023-05-11T16:48:49.055Z,15.60
2023-05-11T16:51:18.360Z,15.61
2023-05-11T16:53:48.032Z,15.61
2023-05-11T16:56:17.618Z,15.93
2023-05-11T16:58:46.898Z,16.01
2023-05-11T17:01:16.573Z,15.77
2023-05-11T17:03:46.013Z,15.56
2023-05-11T17:06:20.985Z,15.44
2023-05-11T17:08:50.496Z,15.48
2023-05-11T17:11:19.840Z,15.62
2023-05-11T17:13:49.126Z,15.75
2023-05-11T17:16:18.614Z,15.82
2023-05-11T17:18:47.980Z,15.69
2023-05-11T17:21:20.053Z,15.69
2023-05-11T17:23:49.329Z,16.09
2023-05-11T17:26:18.683Z,16.20
2023-05-11T17:28:47.988Z,16.37
2023-05-11T17:31:17.957Z,16.57
2023-05-11T17:33:47.650Z,16.60
2023-05-11T17:36:17.064Z,16.49
2023-05-11T17:38:49.921Z,16.46
2023-05-11T17:41:19.224Z,16.38
2023-05-11T17:43:49.002Z,16.48
2023-05-11T17:46:18.359Z,16.54
2023-05-11T17:48:48.040Z,16.72
2023-05-11T17:51:17.353Z,16.81
2023-05-11T17:53:49.942Z,16.86
2023-05-11T17:56:19.310Z,16.86
2023-05-11T17:58:49.519Z,16.89
2023-05-11T18:01:19.756Z,16.83
2023-05-11T18:03:49.467Z,16.80
2023-05-11T18:06:19.224Z,16.66
2023-05-11T18:08:52.109Z,16.62
2023-05-11T18:11:21.421Z,16.57
2023-05-11T18:13:51.141Z,16.50
2023-05-11T18:16:21.153Z,16.49
2023-05-11T18:18:50.640Z,16.53
2023-05-11T18:21:19.991Z,16.47
2023-05-11T18:23:52.000Z,16.36
2023-05-11T18:26:21.820Z,16.28
2023-05-11T18:28:51.130Z,16.28
2023-05-11T18:31:20.474Z,16.36
2023-05-11T18:33:50.249Z,16.34
2023-05-11T18:36:19.548Z,16.34
2023-05-11T18:38:52.256Z,16.34
2023-05-11T18:41:21.560Z,16.34
2023-05-11T18:43:52.834Z,16.33
2023-05-11T18:46:22.379Z,16.28
2023-05-11T18:48:53.081Z,16.22
2023-05-11T18:51:22.961Z,16.24
2023-05-11T18:53:55.080Z,16.19
2023-05-11T18:56:25.632Z,16.10
2023-05-11T18:58:54.925Z,16.04
2023-05-11T19:01:30.251Z,15.99
2023-05-11T19:04:05.707Z,15.99
2023-05-11T19:06:35.014Z,15.98
2023-05-11T19:09:07.177Z,15.95
2023-05-11T19:11:36.466Z,15.93
2023-05-11T19:14:05.763Z,15.91
2023-05-11T19:16:35.949Z,15.90
2023-05-11T19:19:05.416Z,15.82
2023-05-11T19:21:35.545Z,15.75
2023-05-11T19:24:07.648Z,15.63
2023-05-11T19:26:36.909Z,15.59
2023-05-11T19:29:06.284Z,15.60
2023-05-11T19:31:35.642Z,15.57
2023-05-11T19:34:06.918Z,15.58
2023-05-11T19:36:36.289Z,15.52
2023-05-11T19:39:08.232Z,15.47
2023-05-11T19:41:37.522Z,15.48
2023-05-11T19:44:06.958Z,15.45
2023-05-11T19:46:36.550Z,15.41
2023-05-11T19:49:05.924Z,15.10
2023-05-11T19:51:35.287Z,15.18
2023-05-11T19:54:04.604Z,15.38
2023-05-11T19:56:36.712Z,15.31
2023-05-11T19:59:06.000Z,15.25
2023-05-11T20:01:35.528Z,15.38
2023-05-11T20:04:05.087Z,15.39
2023-05-11T20:06:34.536Z,15.41
2023-05-11T20:09:04.007Z,15.46
2023-05-11T20:11:36.018Z,15.52
2023-05-11T20:14:06.288Z,15.58
2023-05-11T20:16:35.715Z,15.42
2023-05-11T20:19:05.633Z,15.32
2023-05-11T20:21:36.014Z,15.30
2023-05-11T20:24:05.400Z,15.31
2023-05-11T20:26:37.288Z,15.21
2023-05-11T20:29:07.923Z,15.23
2023-05-11T20:31:38.011Z,15.19
2023-05-11T20:34:07.696Z,15.18
2023-05-11T20:36:37.068Z,15.22
2023-05-11T20:39:06.454Z,15.26
2023-05-11T20:41:38.601Z,15.29
2023-05-11T20:44:13.579Z,15.28
2023-05-11T20:46:43.042Z,15.27
2023-05-11T20:49:22.203Z,15.27
2023-05-11T20:51:54.158Z,15.25
2023-05-11T20:54:23.472Z,15.22
2023-05-11T20:56:55.448Z,15.19
2023-05-11T21:01:56.990Z,15.04
2023-05-11T21:04:26.394Z,14.98
2023-05-11T21:06:57.005Z,15.00
2023-05-11T21:09:26.321Z,14.93
2023-05-11T21:11:58.473Z,14.94
2023-05-11T21:14:27.889Z,14.96
2023-05-11T21:16:57.300Z,14.93
2023-05-11T21:19:26.635Z,14.94
2023-05-11T21:21:55.944Z,14.91
2023-05-11T21:24:25.261Z,14.85
2023-05-11T21:26:54.588Z,14.80
2023-05-11T21:29:26.493Z,14.72
2023-05-11T21:31:55.814Z,14.75
2023-05-11T21:34:25.183Z,14.52
2023-05-11T21:36:54.638Z,14.45
2023-05-11T21:39:24.820Z,14.42
2023-05-11T21:41:54.242Z,14.34
2023-05-11T21:44:26.118Z,14.46
2023-05-11T21:46:55.740Z,14.69
2023-05-11T21:49:25.221Z,14.77
2023-05-11T21:51:54.491Z,14.81
2023-05-11T21:54:23.816Z,14.56
2023-05-11T21:56:53.651Z,14.52
2023-05-11T21:59:26.782Z,14.51
2023-05-11T22:01:59.435Z,14.15
2023-05-11T22:04:28.899Z,14.05
2023-05-11T22:07:01.478Z,14.38
2023-05-11T22:09:31.695Z,14.59
2023-05-11T22:12:01.046Z,14.75
2023-05-11T22:14:30.477Z,14.80
2023-05-11T22:17:02.403Z,14.78
2023-05-11T22:19:31.832Z,14.75
2023-05-11T22:22:01.170Z,14.80
2023-05-11T22:24:30.510Z,14.69
2023-05-11T22:26:59.849Z,14.65
2023-05-11T22:29:29.198Z,14.75
2023-05-11T22:31:58.535Z,14.80
2023-05-11T22:34:30.569Z,14.78
2023-05-11T22:37:01.362Z,14.76
2023-05-11T22:39:30.998Z,14.73
2023-05-11T22:42:00.426Z,14.59
2023-05-11T22:44:29.955Z,14.64
2023-05-11T22:46:59.513Z,14.53
2023-05-11T22:49:31.405Z,14.54
2023-05-11T22:52:00.741Z,14.45
2023-05-11T22:54:30.041Z,14.40
2023-05-11T22:56:59.347Z,14.31
2023-05-11T22:59:28.809Z,14.43
2023-05-11T23:02:01.875Z,14.53
2023-05-11T23:04:34.273Z,14.61
2023-05-11T23:07:04.386Z,14.66
2023-05-11T23:09:33.685Z,14.80
2023-05-11T23:12:03.689Z,14.77
2023-05-11T23:14:33.053Z,14.68
2023-05-11T23:17:02.377Z,14.59
2023-05-11T23:19:34.315Z,14.63
2023-05-11T23:22:03.687Z,14.50
2023-05-11T23:24:33.037Z,14.48
2023-05-11T23:27:03.491Z,14.50
2023-05-11T23:29:32.919Z,14.57
2023-05-11T23:32:02.249Z,14.61
2023-05-11T23:34:34.124Z,14.67
2023-05-11T23:37:03.390Z,14.72
2023-05-11T23:39:32.669Z,14.69
2023-05-11T23:42:02.002Z,14.59
2023-05-11T23:44:31.656Z,14.41
2023-05-11T23:47:01.973Z,14.38
2023-05-11T23:49:34.102Z,14.43
2023-05-11T23:52:03.428Z,14.47
2023-05-11T23:54:32.703Z,14.37
2023-05-11T23:57:02.225Z,14.39
2023-05-11T23:59:31.534Z,14.39
